Christian Reinauer — WDA6472 — position and weather

sailwx.info

Track history (hours):
 
Tides and Currents Weather Stations Pressure Air Temp Water Temp Dewpoint Dewpoint Depression Visibility Wind Speed Wind Dir Waves Ship Positions

Christian Reinauer

Owner: REINAUER TRANSPORTATION CO LLC, STATEN ISLAND, NY. More information available from US FCC via Universal Licensing System and Coast Guard Vessel Documentation Center.

Last reported at 2016-Apr-29 19:33 UTC. Time now 2016-Apr-30 05:12 UTC.
Position N 29°51' W 089°59'.

Length 170 m; draft 8.1 m.

Type: Tanker. MMSI: 366832740.

Date/timePositionNaut miles runAvg speedWind from/ knotsBaromVisibWave heightAir tempDewpointWater temp
2016-Apr-29 19:33N 29°51' W 089°59'6 5.6
2016-Apr-29 18:34N 29°57' W 090°00'9 8.6
2016-Apr-29 17:33N 29°57' W 090°10'2 0.1
2016-Apr-28 05:24N 29°56' W 090°12'5 5.4
2016-Apr-28 04:33N 29°55' W 090°07'6 6.3
2016-Apr-28 03:33N 29°56' W 089°60'5 5.0
2016-Apr-28 02:33N 29°52' W 089°56'0 0.3
2016-Apr-28 01:23N 29°52' W 089°56'0 0.0
2016-Apr-27 23:29N 29°52' W 089°56'0 0.0
2016-Apr-27 22:23N 29°52' W 089°56'0 0.0
2016-Apr-27 21:29N 29°52' W 089°56'0 0.0
2016-Apr-27 20:32N 29°52' W 089°56'0 0.0
2016-Apr-27 19:05N 29°52' W 089°56'0 0.0
2016-Apr-27 18:23N 29°52' W 089°56'0 0.0
2016-Apr-27 17:29N 29°52' W 089°56'0 0.0
2016-Apr-27 16:29N 29°52' W 089°56'0 0.0
2016-Apr-27 15:29N 29°52' W 089°56'0 0.0
2016-Apr-27 14:17N 29°52' W 089°56'0 0.0
2016-Apr-27 13:17N 29°52' W 089°56'0 0.0
2016-Apr-27 12:13N 29°52' W 089°56'0 0.0
2016-Apr-27 11:28N 29°52' W 089°56'0 0.0
2016-Apr-27 10:28N 29°52' W 089°56'0 0.0
2016-Apr-27 09:31N 29°52' W 089°56'0 0.0
2016-Apr-27 08:28N 29°52' W 089°56'0 0.0
2016-Apr-27 07:28N 29°52' W 089°56'0 0.0
2016-Apr-27 06:28N 29°52' W 089°56'0 0.0
2016-Apr-27 05:31N 29°52' W 089°56'0 0.0
2016-Apr-27 04:31N 29°52' W 089°56'0 0.0
2016-Apr-27 03:31N 29°52' W 089°56'0 0.0
2016-Apr-27 02:19N 29°52' W 089°56'0 0.0
2016-Apr-26 23:22N 29°52' W 089°56'0 0.0
2016-Apr-26 20:28N 29°52' W 089°56'0 0.0
2016-Apr-26 19:28N 29°52' W 089°56'0 0.0
2016-Apr-26 18:28N 29°52' W 089°56'0 0.0
2016-Apr-26 17:28N 29°52' W 089°56'0 0.0
2016-Apr-26 16:22N 29°52' W 089°56'0 0.0
2016-Apr-26 15:31N 29°52' W 089°56'0 0.0
2016-Apr-26 14:22N 29°52' W 089°56'0 0.0
2016-Apr-26 13:28N 29°52' W 089°56'0 0.0
2016-Apr-26 12:28N 29°52' W 089°56'0 0.0
2016-Apr-26 11:31N 29°52' W 089°56'0 0.0
2016-Apr-26 10:25N 29°52' W 089°56'0 0.0
2016-Apr-26 09:31N 29°52' W 089°56'0 0.0
2016-Apr-26 08:22N 29°52' W 089°56'0 0.0
2016-Apr-26 07:28N 29°52' W 089°56'0 0.0
2016-Apr-26 06:10N 29°52' W 089°56'0 0.0
2016-Apr-26 04:04N 29°52' W 089°56'0 0.0
2016-Apr-26 02:31N 29°52' W 089°56'0 0.0
2016-Apr-26 00:33N 29°52' W 089°56'0 0.0
2016-Apr-25 23:33N 29°52' W 089°56'0 0.0
2016-Apr-25 22:33N 29°52' W 089°56'0 0.0
2016-Apr-25 21:15N 29°52' W 089°56'0 0.0
2016-Apr-25 20:21N 29°52' W 089°56'0 0.0
2016-Apr-25 19:18N 29°52' W 089°56'0 0.0
2016-Apr-25 18:21N 29°52' W 089°56'0 0.0
2016-Apr-25 17:24N 29°52' W 089°56'0 0.0
2016-Apr-25 16:33N 29°52' W 089°56'0 0.0
2016-Apr-25 13:18N 29°52' W 089°56'0 0.0
2016-Apr-25 12:27N 29°52' W 089°56'0 0.0
2016-Apr-25 11:21N 29°52' W 089°56'0 0.0
2016-Apr-25 09:18N 29°52' W 089°56'0 0.0
2016-Apr-25 07:30N 29°52' W 089°56'0 0.0
2016-Apr-25 04:24N 29°52' W 089°56'0 0.0
2016-Apr-25 03:26N 29°52' W 089°56'3 3.2
2016-Apr-25 02:34N 29°51' W 089°59'410 9.7
2016-Apr-23 08:27N 27°40' W 082°36'910.3
2016-Apr-23 07:34N 27°47' W 082°31'9 8.7
2016-Apr-23 06:34N 27°55' W 082°27'2 1.8
2016-Apr-23 05:33N 27°57' W 082°27'0 0.0
2016-Apr-23 04:31N 27°57' W 082°27'0 0.0
2016-Apr-23 03:31N 27°57' W 082°27'0 0.0
2016-Apr-23 02:31N 27°57' W 082°27'0 0.0
2016-Apr-23 01:31N 27°57' W 082°27'0 0.0
2016-Apr-23 00:31N 27°57' W 082°27'0 0.0
2016-Apr-22 19:14N 27°57' W 082°27'0 0.0
2016-Apr-22 18:32N 27°57' W 082°27'0 0.0
2016-Apr-22 17:32N 27°57' W 082°27'0 0.0
2016-Apr-22 16:32N 27°57' W 082°27'0 0.0
2016-Apr-22 15:32N 27°57' W 082°27'0 0.0
2016-Apr-22 14:32N 27°57' W 082°27'0 0.0
2016-Apr-22 13:32N 27°57' W 082°27'0 0.0
2016-Apr-22 12:32N 27°57' W 082°27'0 0.0
2016-Apr-22 11:32N 27°57' W 082°27'0 0.0
2016-Apr-22 10:32N 27°57' W 082°27'0 0.0
2016-Apr-22 09:32N 27°57' W 082°27'0 0.0
2016-Apr-22 08:32N 27°57' W 082°27'0 0.0
2016-Apr-22 07:32N 27°57' W 082°27'0 0.0
2016-Apr-22 06:32N 27°57' W 082°27'0 0.0
2016-Apr-22 05:32N 27°57' W 082°27'0 0.0
2016-Apr-22 04:32N 27°57' W 082°27'0 0.0
2016-Apr-22 03:32N 27°57' W 082°27'0 0.0
2016-Apr-22 02:32N 27°57' W 082°27'0 0.0
2016-Apr-22 01:32N 27°57' W 082°27'0 0.0
2016-Apr-22 00:32N 27°57' W 082°27'0 0.0
2016-Apr-21 23:32N 27°57' W 082°27'0 0.0
2016-Apr-21 22:32N 27°57' W 082°27'0 0.0
2016-Apr-21 21:32N 27°57' W 082°27'0 0.0
2016-Apr-21 20:32N 27°57' W 082°27'0 0.0
2016-Apr-21 19:32N 27°57' W 082°27'0 0.0
2016-Apr-21 18:32N 27°57' W 082°27'0 0.0
2016-Apr-21 17:32N 27°57' W 082°27'0 0.0
2016-Apr-21 16:32N 27°57' W 082°27'0 0.0
2016-Apr-21 15:32N 27°57' W 082°27'0 0.0
2016-Apr-21 14:32N 27°57' W 082°27'0 0.0
2016-Apr-21 13:32N 27°57' W 082°27'0 0.0
2016-Apr-21 12:32N 27°57' W 082°27'0 0.0
2016-Apr-21 11:32N 27°57' W 082°27'0 0.0
2016-Apr-21 10:32N 27°57' W 082°27'0 0.0
2016-Apr-21 09:32N 27°57' W 082°27'0 0.0
2016-Apr-21 08:32N 27°57' W 082°27'0 0.0
2016-Apr-21 07:31N 27°57' W 082°27'0 0.0
2016-Apr-21 06:31N 27°57' W 082°27'0 0.0
2016-Apr-21 05:31N 27°57' W 082°27'0 0.0
2016-Apr-21 04:31N 27°57' W 082°27'0 0.0
2016-Apr-21 03:31N 27°57' W 082°27'0 0.0
2016-Apr-21 02:31N 27°57' W 082°27'0 0.0
2016-Apr-21 01:31N 27°57' W 082°27'0 0.0
2016-Apr-21 00:31N 27°57' W 082°27'0 0.0
2016-Apr-20 23:31N 27°57' W 082°27'0 0.0
2016-Apr-20 22:31N 27°57' W 082°27'0 0.0
2016-Apr-20 21:31N 27°57' W 082°27'0 0.0
2016-Apr-20 20:31N 27°57' W 082°27'0 0.0
2016-Apr-20 19:31N 27°57' W 082°27'0 0.0
2016-Apr-20 18:31N 27°57' W 082°27'0 0.0
2016-Apr-20 17:31N 27°57' W 082°27'0 0.0
2016-Apr-20 16:31N 27°57' W 082°27'0 0.0
2016-Apr-20 15:31N 27°57' W 082°27'0 0.0
2016-Apr-20 14:31N 27°57' W 082°27'0 0.0
2016-Apr-20 13:31N 27°57' W 082°27'0 0.0
2016-Apr-20 12:31N 27°57' W 082°27'  
Track history (hours):
 
Tides and Currents Weather Stations Pressure Air Temp Water Temp Dewpoint Dewpoint Depression Visibility Wind Speed Wind Dir Waves Ship Positions

Christian Reinauer

Owner: REINAUER TRANSPORTATION CO LLC, STATEN ISLAND, NY. More information available from US FCC via Universal Licensing System and Coast Guard Vessel Documentation Center.

Last reported at 2016-Apr-29 19:33 UTC. Time now 2016-Apr-30 05:12 UTC.
Position N 29°51' W 089°59'.

Length 170 m; draft 8.1 m.

Type: Tanker. MMSI: 366832740.

Date/timePositionNaut miles runAvg speedWind from/ knotsBaromVisibWave heightAir tempDewpointWater temp
2016-Apr-29 19:33N 29°51' W 089°59'6 5.6
2016-Apr-29 18:34N 29°57' W 090°00'9 8.6
2016-Apr-29 17:33N 29°57' W 090°10'2 0.1
2016-Apr-28 05:24N 29°56' W 090°12'5 5.4
2016-Apr-28 04:33N 29°55' W 090°07'6 6.3
2016-Apr-28 03:33N 29°56' W 089°60'5 5.0
2016-Apr-28 02:33N 29°52' W 089°56'0 0.3
2016-Apr-28 01:23N 29°52' W 089°56'0 0.0
2016-Apr-27 23:29N 29°52' W 089°56'0 0.0
2016-Apr-27 22:23N 29°52' W 089°56'0 0.0
2016-Apr-27 21:29N 29°52' W 089°56'0 0.0
2016-Apr-27 20:32N 29°52' W 089°56'0 0.0
2016-Apr-27 19:05N 29°52' W 089°56'0 0.0
2016-Apr-27 18:23N 29°52' W 089°56'0 0.0
2016-Apr-27 17:29N 29°52' W 089°56'0 0.0
2016-Apr-27 16:29N 29°52' W 089°56'0 0.0
2016-Apr-27 15:29N 29°52' W 089°56'0 0.0
2016-Apr-27 14:17N 29°52' W 089°56'0 0.0
2016-Apr-27 13:17N 29°52' W 089°56'0 0.0
2016-Apr-27 12:13N 29°52' W 089°56'0 0.0
2016-Apr-27 11:28N 29°52' W 089°56'0 0.0
2016-Apr-27 10:28N 29°52' W 089°56'0 0.0
2016-Apr-27 09:31N 29°52' W 089°56'0 0.0
2016-Apr-27 08:28N 29°52' W 089°56'0 0.0
2016-Apr-27 07:28N 29°52' W 089°56'0 0.0
2016-Apr-27 06:28N 29°52' W 089°56'0 0.0
2016-Apr-27 05:31N 29°52' W 089°56'0 0.0
2016-Apr-27 04:31N 29°52' W 089°56'0 0.0
2016-Apr-27 03:31N 29°52' W 089°56'0 0.0
2016-Apr-27 02:19N 29°52' W 089°56'0 0.0
2016-Apr-26 23:22N 29°52' W 089°56'0 0.0
2016-Apr-26 20:28N 29°52' W 089°56'0 0.0
2016-Apr-26 19:28N 29°52' W 089°56'0 0.0
2016-Apr-26 18:28N 29°52' W 089°56'0 0.0
2016-Apr-26 17:28N 29°52' W 089°56'0 0.0
2016-Apr-26 16:22N 29°52' W 089°56'0 0.0
2016-Apr-26 15:31N 29°52' W 089°56'0 0.0
2016-Apr-26 14:22N 29°52' W 089°56'0 0.0
2016-Apr-26 13:28N 29°52' W 089°56'0 0.0
2016-Apr-26 12:28N 29°52' W 089°56'0 0.0
2016-Apr-26 11:31N 29°52' W 089°56'0 0.0
2016-Apr-26 10:25N 29°52' W 089°56'0 0.0
2016-Apr-26 09:31N 29°52' W 089°56'0 0.0
2016-Apr-26 08:22N 29°52' W 089°56'0 0.0
2016-Apr-26 07:28N 29°52' W 089°56'0 0.0
2016-Apr-26 06:10N 29°52' W 089°56'0 0.0
2016-Apr-26 04:04N 29°52' W 089°56'0 0.0
2016-Apr-26 02:31N 29°52' W 089°56'0 0.0
2016-Apr-26 00:33N 29°52' W 089°56'0 0.0
2016-Apr-25 23:33N 29°52' W 089°56'0 0.0
2016-Apr-25 22:33N 29°52' W 089°56'0 0.0
2016-Apr-25 21:15N 29°52' W 089°56'0 0.0
2016-Apr-25 20:21N 29°52' W 089°56'0 0.0
2016-Apr-25 19:18N 29°52' W 089°56'0 0.0
2016-Apr-25 18:21N 29°52' W 089°56'0 0.0
2016-Apr-25 17:24N 29°52' W 089°56'0 0.0
2016-Apr-25 16:33N 29°52' W 089°56'0 0.0
2016-Apr-25 13:18N 29°52' W 089°56'0 0.0
2016-Apr-25 12:27N 29°52' W 089°56'0 0.0
2016-Apr-25 11:21N 29°52' W 089°56'0 0.0
2016-Apr-25 09:18N 29°52' W 089°56'0 0.0
2016-Apr-25 07:30N 29°52' W 089°56'0 0.0
2016-Apr-25 04:24N 29°52' W 089°56'0 0.0
2016-Apr-25 03:26N 29°52' W 089°56'3 3.2
2016-Apr-25 02:34N 29°51' W 089°59'410 9.7
2016-Apr-23 08:27N 27°40' W 082°36'910.3
2016-Apr-23 07:34N 27°47' W 082°31'9 8.7
2016-Apr-23 06:34N 27°55' W 082°27'2 1.8
2016-Apr-23 05:33N 27°57' W 082°27'0 0.0
2016-Apr-23 04:31N 27°57' W 082°27'0 0.0
2016-Apr-23 03:31N 27°57' W 082°27'0 0.0
2016-Apr-23 02:31N 27°57' W 082°27'0 0.0
2016-Apr-23 01:31N 27°57' W 082°27'0 0.0
2016-Apr-23 00:31N 27°57' W 082°27'0 0.0
2016-Apr-22 19:14N 27°57' W 082°27'0 0.0
2016-Apr-22 18:32N 27°57' W 082°27'0 0.0
2016-Apr-22 17:32N 27°57' W 082°27'0 0.0
2016-Apr-22 16:32N 27°57' W 082°27'0 0.0
2016-Apr-22 15:32N 27°57' W 082°27'0 0.0
2016-Apr-22 14:32N 27°57' W 082°27'0 0.0
2016-Apr-22 13:32N 27°57' W 082°27'0 0.0
2016-Apr-22 12:32N 27°57' W 082°27'0 0.0
2016-Apr-22 11:32N 27°57' W 082°27'0 0.0
2016-Apr-22 10:32N 27°57' W 082°27'0 0.0
2016-Apr-22 09:32N 27°57' W 082°27'0 0.0
2016-Apr-22 08:32N 27°57' W 082°27'0 0.0
2016-Apr-22 07:32N 27°57' W 082°27'0 0.0
2016-Apr-22 06:32N 27°57' W 082°27'0 0.0
2016-Apr-22 05:32N 27°57' W 082°27'0 0.0
2016-Apr-22 04:32N 27°57' W 082°27'0 0.0
2016-Apr-22 03:32N 27°57' W 082°27'0 0.0
2016-Apr-22 02:32N 27°57' W 082°27'0 0.0
2016-Apr-22 01:32N 27°57' W 082°27'0 0.0
2016-Apr-22 00:32N 27°57' W 082°27'0 0.0
2016-Apr-21 23:32N 27°57' W 082°27'0 0.0
2016-Apr-21 22:32N 27°57' W 082°27'0 0.0
2016-Apr-21 21:32N 27°57' W 082°27'0 0.0
2016-Apr-21 20:32N 27°57' W 082°27'0 0.0
2016-Apr-21 19:32N 27°57' W 082°27'0 0.0
2016-Apr-21 18:32N 27°57' W 082°27'0 0.0
2016-Apr-21 17:32N 27°57' W 082°27'0 0.0
2016-Apr-21 16:32N 27°57' W 082°27'0 0.0
2016-Apr-21 15:32N 27°57' W 082°27'0 0.0
2016-Apr-21 14:32N 27°57' W 082°27'0 0.0
2016-Apr-21 13:32N 27°57' W 082°27'0 0.0
2016-Apr-21 12:32N 27°57' W 082°27'0 0.0
2016-Apr-21 11:32N 27°57' W 082°27'0 0.0
2016-Apr-21 10:32N 27°57' W 082°27'0 0.0
2016-Apr-21 09:32N 27°57' W 082°27'0 0.0
2016-Apr-21 08:32N 27°57' W 082°27'0 0.0
2016-Apr-21 07:31N 27°57' W 082°27'0 0.0
2016-Apr-21 06:31N 27°57' W 082°27'0 0.0
2016-Apr-21 05:31N 27°57' W 082°27'0 0.0
2016-Apr-21 04:31N 27°57' W 082°27'0 0.0
2016-Apr-21 03:31N 27°57' W 082°27'0 0.0
2016-Apr-21 02:31N 27°57' W 082°27'0 0.0
2016-Apr-21 01:31N 27°57' W 082°27'0 0.0
2016-Apr-21 00:31N 27°57' W 082°27'0 0.0
2016-Apr-20 23:31N 27°57' W 082°27'0 0.0
2016-Apr-20 22:31N 27°57' W 082°27'0 0.0
2016-Apr-20 21:31N 27°57' W 082°27'0 0.0
2016-Apr-20 20:31N 27°57' W 082°27'0 0.0
2016-Apr-20 19:31N 27°57' W 082°27'0 0.0
2016-Apr-20 18:31N 27°57' W 082°27'0 0.0
2016-Apr-20 17:31N 27°57' W 082°27'0 0.0
2016-Apr-20 16:31N 27°57' W 082°27'0 0.0
2016-Apr-20 15:31N 27°57' W 082°27'0 0.0
2016-Apr-20 14:31N 27°57' W 082°27'0 0.0
2016-Apr-20 13:31N 27°57' W 082°27'0 0.0
2016-Apr-20 12:31N 27°57' W 082°27'  

Dump ship's entire track history